Аэропорт: Петропавловск. Петропавловск

ICAO: UACP

METAR:
2018/07/22 11:30
UACP 221130Z 03005MPS 360V070 CAVOK 18/07 Q1014 R05/0/0060 NOSIG RMK QFE748/0998
METAR:
2014/11/02 09:00
TAF UACP 020753Z 0209/0218 21004MPS 9999 BKN030